Time;durP1;ratioP1;P1;durP2;ratioP2;P2;SDS_P1;SDS_P2;PMS_P1;PMS_P2;Temp;Humidity;BMP_temperature;BMP_pressure;BME280_temperature;BME280_humidity;BME280_pressure;Samples;Min_cycle;Max_cycle;Signal;HPM_P1;HPM_P2
2022/12/15 00:38:51;;;;;;;;;;;;;;;9.23;57.54;98174.78;4954577;29;19925;-77
2022/12/15 00:41:16;;;;;;;;;;;;;;;9.23;57.92;98169.56;4921243;29;19919;-76
2022/12/15 00:43:42;;;;;;;;;;;;;;;9.24;57.86;98166.00;4937329;29;19918;-77
2022/12/15 00:48:51;;;;;;;;;;;;;;;9.22;57.99;98123.66;4954332;29;19926;-76
2022/12/15 00:51:16;;;;;;;;;;;;;;;9.21;57.76;98137.63;4937166;29;19918;-76
2022/12/15 01:21:03;;;;;;;;;;;;;;;9.24;58.74;98103.50;4957607;29;19930;-77
2022/12/15 01:23:29;;;;;;;;;;;;;;;9.24;58.60;98098.31;4940465;29;19925;-75
2022/12/15 01:25:55;;;;;;;;;;;;;;;9.26;58.81;98095.56;4924053;29;20017;-75
2022/12/15 01:28:20;;;;;;;;;;;;;;;9.26;58.51;98096.41;4940481;29;20005;-75
2022/12/15 01:30:46;;;;;;;;;;;;;;;9.27;58.81;98094.63;4940198;29;20005;-77
2022/12/15 01:33:11;;;;;;;;;;;;;;;9.27;58.87;98103.28;4940358;29;19919;-78
2022/12/15 01:35:37;;;;;;;;;;;;;;;9.29;58.72;98106.56;4940417;29;20002;-77
2022/12/15 01:38:02;;;;;;;;;;;;;;;9.31;58.85;98120.28;4948090;29;19918;-75
2022/12/15 01:40:45;;;;;;;;;;;;;;;9.31;58.82;98114.25;4965401;29;19923;-76
2022/12/15 01:43:12;;;;;;;;;;;;;;;9.32;58.75;98114.13;4926967;29;19919;-76
2022/12/15 01:45:54;;;;;;;;;;;;;;;9.32;58.86;98108.09;4940208;29;20018;-76
2022/12/15 01:48:22;;;;;;;;;;;;;;;9.33;59.12;98113.19;4957260;29;19918;-76
2022/12/15 01:50:56;;;;;;;;;;;;;;;9.34;59.21;98104.41;4924085;29;19956;-77
2022/12/15 01:53:21;;;;;;;;;;;;;;;9.35;59.02;98097.44;4956991;29;20476;-77
2022/12/15 01:55:46;;;;;;;;;;;;;;;9.37;59.17;98092.91;4939659;29;19922;-76
2022/12/15 01:58:12;;;;;;;;;;;;;;;9.37;59.03;98066.88;4923903;29;19918;-76
2022/12/15 02:00:37;;;;;;;;;;;;;;;9.37;59.06;98065.09;4939446;29;19990;-77
2022/12/15 02:03:02;;;;;;;;;;;;;;;9.38;59.24;98076.34;4923622;29;19919;-77
2022/12/15 02:05:28;;;;;;;;;;;;;;;9.39;59.32;98091.00;4956776;29;19930;-77
2022/12/15 02:07:53;;;;;;;;;;;;;;;9.38;59.46;98078.97;4923578;29;20375;-76
2022/12/15 02:10:18;;;;;;;;;;;;;;;9.40;59.34;98071.84;4939179;29;19946;-77
2022/12/15 02:12:56;;;;;;;;;;;;;;;9.38;59.40;98071.97;4939891;29;19918;-76
2022/12/15 02:15:26;;;;;;;;;;;;;;;9.38;59.52;98068.53;4956613;28;20382;-76
2022/12/15 02:18:04;;;;;;;;;;;;;;;9.38;59.51;98073.75;4923169;29;20386;-77
2022/12/15 02:20:34;;;;;;;;;;;;;;;9.39;59.57;98067.56;4956575;29;19990;-77
2022/12/15 02:23:15;;;;;;;;;;;;;;;9.38;59.87;98069.34;4939414;29;20005;-75
2022/12/15 02:25:59;;;;;;;;;;;;;;;9.39;59.76;98075.38;4939426;29;20033;-75
2022/12/15 02:28:27;;;;;;;;;;;;;;;9.40;60.08;98066.63;4956189;29;19922;-76
2022/12/15 02:33:40;;;;;;;;;;;;;;;9.41;60.14;98084.72;4942015;29;20173;-76
2022/12/15 02:36:09;;;;;;;;;;;;;;;9.41;60.37;98082.13;4939346;29;19918;-76
2022/12/15 02:38:36;;;;;;;;;;;;;;;9.43;60.39;98073.38;4939041;29;19925;-76
2022/12/15 02:41:02;;;;;;;;;;;;;;;9.44;60.28;98081.06;4938682;29;19918;-76
2022/12/15 02:43:28;;;;;;;;;;;;;;;9.45;60.34;98089.69;4922939;29;19919;-76
2022/12/15 02:46:15;;;;;;;;;;;;;;;9.45;60.66;98090.50;4939184;29;19918;-75
2022/12/15 02:48:47;;;;;;;;;;;;;;;9.46;60.43;98089.56;4939012;29;19919;-76
2022/12/15 02:51:32;;;;;;;;;;;;;;;9.45;60.45;98082.69;4922946;29;19918;-77
2022/12/15 02:54:15;;;;;;;;;;;;;;;9.48;60.30;98086.84;4956285;29;20405;-77
2022/12/15 02:57:04;;;;;;;;;;;;;;;9.46;60.54;98092.16;4955849;29;19918;-75
2022/12/15 02:59:41;;;;;;;;;;;;;;;9.46;60.45;98097.38;4915389;29;20294;-77
2022/12/15 03:02:07;;;;;;;;;;;;;;;9.47;60.53;98091.22;4899596;29;19919;-77
2022/12/15 03:04:32;;;;;;;;;;;;;;;9.48;60.47;98102.47;4915584;29;19926;-76
2022/12/15 03:06:58;;;;;;;;;;;;;;;9.48;60.53;98087.66;4915235;29;19969;-76
2022/12/15 03:09:24;;;;;;;;;;;;;;;9.45;60.49;98093.13;4915219;29;19919;-76
2022/12/15 03:11:49;;;;;;;;;;;;;;;9.46;60.32;98081.75;4915335;29;20345;-77
2022/12/15 03:14:14;;;;;;;;;;;;;;;9.45;60.72;98085.31;4915325;29;19926;-77
2022/12/15 03:16:40;;;;;;;;;;;;;;;9.43;60.53;98097.63;4899199;29;19927;-77
2022/12/15 03:19:05;;;;;;;;;;;;;;;9.43;60.58;98102.84;4899393;29;19994;-75
2022/12/15 03:21:30;;;;;;;;;;;;;;;9.42;60.69;98101.19;4914760;29;19923;-77
2022/12/15 03:23:56;;;;;;;;;;;;;;;9.41;60.73;98105.56;4914793;29;20015;-77
2022/12/15 03:26:21;;;;;;;;;;;;;;;9.41;60.60;98107.38;4899165;29;19919;-76
2022/12/15 03:28:46;;;;;;;;;;;;;;;9.42;60.64;98093.38;4898767;29;20387;-77
2022/12/15 03:31:11;;;;;;;;;;;;;;;9.43;60.42;98092.41;4914936;29;19920;-77
2022/12/15 03:33:37;;;;;;;;;;;;;;;9.43;60.58;98097.63;4914855;29;19923;-77
2022/12/15 03:36:02;;;;;;;;;;;;;;;9.42;60.41;98082.94;4915140;28;19976;-76
2022/12/15 03:38:27;;;;;;;;;;;;;;;9.41;60.45;98078.72;4974374;28;19922;-77
2022/12/15 03:40:53;;;;;;;;;;;;;;;9.40;60.44;98061.41;4974314;28;20401;-77
2022/12/15 03:43:18;;;;;;;;;;;;;;;9.40;60.31;98045.78;4940728;28;20004;-77
2022/12/15 03:45:43;;;;;;;;;;;;;;;9.37;60.47;98041.63;4973901;28;20017;-76
2022/12/15 03:48:09;;;;;;;;;;;;;;;9.36;60.45;98041.75;4956698;28;19918;-76
2022/12/15 03:50:34;;;;;;;;;;;;;;;9.35;60.46;98038.34;4940895;28;19925;-77
2022/12/15 03:53:00;;;;;;;;;;;;;;;9.34;60.47;98041.06;4974141;28;19968;-77
2022/12/15 03:55:27;;;;;;;;;;;;;;;9.33;60.45;98035.06;4956615;28;19918;-78
2022/12/15 03:57:52;;;;;;;;;;;;;;;9.31;60.33;98029.13;4956994;28;20298;-78
2022/12/15 04:00:18;;;;;;;;;;;;;;;9.31;60.60;98029.13;4956565;28;19977;-77
2022/12/15 04:02:44;;;;;;;;;;;;;;;9.29;60.66;98033.63;4956773;28;19976;-76
2022/12/15 04:05:18;;;;;;;;;;;;;;;9.29;60.48;98030.22;4940855;28;20397;-76
2022/12/15 04:07:43;;;;;;;;;;;;;;;9.28;60.43;98031.16;4974078;28;19966;-77
2022/12/15 04:10:09;;;;;;;;;;;;;;;9.28;60.41;98037.19;4956494;28;20369;-75
2022/12/15 04:12:34;;;;;;;;;;;;;;;9.27;60.40;98038.16;4956641;28;20390;-76
2022/12/15 04:15:00;;;;;;;;;;;;;;;9.27;60.62;98035.56;4940646;28;19922;-77
2022/12/15 04:17:26;;;;;;;;;;;;;;;9.28;60.79;98044.19;4955592;28;19969;-79
2022/12/15 04:20:10;;;;;;;;;;;;;;;9.28;60.50;98045.00;4940496;28;19923;-81
2022/12/15 04:22:39;;;;;;;;;;;;;;;9.29;62.14;98046.66;4974318;28;19941;-86
2022/12/15 05:33:23;;;;;;;;;;;;;;;9.34;61.41;98094.00;4981097;28;19925;-76
2022/12/15 05:35:48;;;;;;;;;;;;;;;9.35;61.39;98076.59;4978932;28;19918;-76
2022/12/15 05:38:14;;;;;;;;;;;;;;;9.36;61.16;98078.22;4962204;28;19956;-76
2022/12/15 05:40:39;;;;;;;;;;;;;;;9.37;61.54;98093.75;4978599;28;19918;-76
2022/12/15 05:43:04;;;;;;;;;;;;;;;9.37;61.46;98104.16;4978021;28;19944;-77
2022/12/15 05:45:30;;;;;;;;;;;;;;;9.38;61.37;98115.44;4962304;28;20282;-75
2022/12/15 05:47:55;;;;;;;;;;;;;;;9.40;61.43;98124.75;4978585;28;19957;-78
2022/12/15 05:50:21;;;;;;;;;;;;;;;9.39;61.49;98106.63;4978075;28;20274;-77
2022/12/15 05:52:48;;;;;;;;;;;;;;;9.41;61.51;98110.78;4978066;28;19922;-76
2022/12/15 05:55:14;;;;;;;;;;;;;;;9.40;61.38;98116.13;4995385;28;19933;-75
2022/12/15 05:57:39;;;;;;;;;;;;;;;9.40;61.50;98106.50;4962005;28;20400;-76
2022/12/15 06:00:05;;;;;;;;;;;;;;;9.41;61.39;98096.94;4978065;28;20290;-76
2022/12/15 06:02:30;;;;;;;;;;;;;;;9.42;61.41;98098.56;4978135;28;20366;-76
2022/12/15 06:04:55;;;;;;;;;;;;;;;9.41;61.42;98099.53;4962226;28;20438;-77
2022/12/15 06:07:21;;;;;;;;;;;;;;;9.41;61.40;98099.53;4977833;28;19917;-77
2022/12/15 06:09:46;;;;;;;;;;;;;;;9.40;61.39;98105.69;4978098;28;19921;-76
2022/12/15 06:12:11;;;;;;;;;;;;;;;9.39;61.28;98114.44;4995495;28;20010;-76
2022/12/15 06:14:38;;;;;;;;;;;;;;;9.40;61.16;98110.91;4995491;28;19918;-75
2022/12/15 06:17:03;;;;;;;;;;;;;;;9.39;61.34;98123.13;4977922;28;19918;-76
2022/12/15 06:19:28;;;;;;;;;;;;;;;9.41;61.29;98142.03;4961645;28;19933;-76
2022/12/15 06:21:54;;;;;;;;;;;;;;;9.43;61.30;98148.91;4977875;28;19972;-77
2022/12/15 06:24:19;;;;;;;;;;;;;;;9.44;61.25;98160.97;4994890;28;19917;-77
2022/12/15 06:26:44;;;;;;;;;;;;;;;9.45;61.07;98147.00;4978044;28;19918;-76
2022/12/15 06:29:10;;;;;;;;;;;;;;;9.46;61.20;98148.66;4961695;28;19918;-76
2022/12/15 06:31:35;;;;;;;;;;;;;;;9.48;61.14;98141.53;4978116;28;20297;-76
2022/12/15 06:34:08;;;;;;;;;;;;;;;9.49;61.21;98153.59;4977514;28;19924;-76
2022/12/15 06:36:33;;;;;;;;;;;;;;;9.50;61.13;98158.69;4977899;28;19925;-77
2022/12/15 06:38:59;;;;;;;;;;;;;;;9.50;61.15;98150.88;4961482;28;19918;-76
2022/12/15 06:41:25;;;;;;;;;;;;;;;9.50;61.13;98144.84;4970513;28;19922;-76
2022/12/15 06:43:51;;;;;;;;;;;;;;;9.50;61.16;98144.84;4957631;28;19925;-77
2022/12/15 06:46:16;;;;;;;;;;;;;;;9.51;61.12;98157.75;4942174;28;19925;-77
2022/12/15 06:48:43;;;;;;;;;;;;;;;9.51;61.00;98167.34;4941912;28;20321;-82
2022/12/15 06:51:09;;;;;;;;;;;;;;;9.97;71.86;98174.00;4986471;28;19922;-82
2022/12/15 06:53:35;;;;;;;;;;;;;;;10.18;68.93;98181.00;4981450;28;20009;-82
2022/12/15 06:56:01;;;;;;;;;;;;;;;10.48;71.58;98183.69;4995381;28;19918;-82
2022/12/15 06:58:26;;;;;;;;;;;;;;;10.52;68.24;98188.66;4977587;28;19918;-82
2022/12/15 07:00:51;;;;;;;;;;;;;;;10.47;65.93;98200.28;4995496;28;19925;-88
2022/12/15 07:03:17;;;;;;;;;;;;;;;10.46;64.74;98195.19;4942164;28;19977;-83
2022/12/15 07:05:43;;;;;;;;;;;;;;;10.47;64.33;98212.53;4938980;29;19925;-84
2022/12/15 07:08:11;;;;;;;;;;;;;;;10.53;63.49;98211.16;4956039;29;19982;-85
2022/12/15 07:10:37;;;;;;;;;;;;;;;10.54;62.70;98211.03;4940408;29;20400;-84
2022/12/15 07:13:02;;;;;;;;;;;;;;;10.93;70.52;98233.88;4938853;29;19918;-80
2022/12/15 07:15:28;;;;;;;;;;;;;;;11.33;70.95;98231.25;4938172;29;19922;-83
2022/12/15 07:17:54;;;;;;;;;;;;;;;11.51;67.71;98228.81;4937845;29;20069;-81
2022/12/15 07:20:20;;;;;;;;;;;;;;;11.56;65.08;98228.41;4938707;29;19962;-79
2022/12/15 07:22:49;;;;;;;;;;;;;;;11.56;63.91;98218.78;4938247;29;19926;-80
2022/12/15 07:25:14;;;;;;;;;;;;;;;11.62;62.83;98222.63;4940438;29;19919;-88
2022/12/15 07:27:41;;;;;;;;;;;;;;;11.65;62.40;98214.50;4957440;29;20009;-90
2022/12/15 07:30:07;;;;;;;;;;;;;;;11.71;61.90;98215.75;4958195;29;19950;-84
2022/12/15 07:32:32;;;;;;;;;;;;;;;12.37;60.25;98229.94;4939655;29;19974;-86
2022/12/15 07:34:58;;;;;;;;;;;;;;;12.43;60.29;98238.03;4955594;29;19957;-79
2022/12/15 07:37:23;;;;;;;;;;;;;;;12.78;58.56;98247.03;4957076;29;20013;-86
2022/12/15 07:39:48;;;;;;;;;;;;;;;13.20;58.30;98261.47;4939960;29;19926;-88
2022/12/15 07:42:14;;;;;;;;;;;;;;;13.14;57.93;98257.66;4942014;29;19926;-75
2022/12/15 07:44:39;;;;;;;;;;;;;;;13.24;57.07;98260.22;4956499;29;19918;-78
2022/12/15 07:47:05;;;;;;;;;;;;;;;13.34;57.79;98247.09;4937876;29;19931;-78
2022/12/15 07:49:30;;;;;;;;;;;;;;;13.88;60.81;98240.13;4937763;29;19925;-79
2022/12/15 07:51:57;;;;;;;;;;;;;;;14.02;59.87;98238.75;4938355;29;19925;-78
2022/12/15 07:54:22;;;;;;;;;;;;;;;14.72;57.71;98239.75;4937795;29;19918;-78
2022/12/15 07:56:47;;;;;;;;;;;;;;;15.13;56.35;98234.69;4937669;29;19922;-76
2022/12/15 07:59:13;;;;;;;;;;;;;;;15.19;55.38;98247.22;4937627;29;19918;-83
2022/12/15 08:01:38;;;;;;;;;;;;;;;16.24;52.83;98242.34;4937168;29;20357;-78
2022/12/15 08:04:04;;;;;;;;;;;;;;;17.05;50.63;98236.28;4937400;29;19918;-77
2022/12/15 08:06:29;;;;;;;;;;;;;;;17.72;48.39;98241.03;4955920;29;19970;-79
2022/12/15 08:08:54;;;;;;;;;;;;;;;18.33;46.81;98238.47;4937699;29;19922;-79
2022/12/15 08:11:20;;;;;;;;;;;;;;;18.75;46.28;98226.47;4954753;29;19918;-78
2022/12/15 08:13:46;;;;;;;;;;;;;;;19.08;45.97;98244.63;4954776;29;19969;-78
2022/12/15 08:16:11;;;;;;;;;;;;;;;19.46;45.53;98254.25;4937661;29;19923;-80
2022/12/15 08:18:38;;;;;;;;;;;;;;;19.00;46.07;98244.75;4939930;29;19929;-81
2022/12/15 08:21:07;;;;;;;;;;;;;;;19.40;45.23;98255.00;4947265;29;19951;-80
2022/12/15 08:23:32;;;;;;;;;;;;;;;19.88;43.73;98255.38;4962657;23;20025;-81
2022/12/15 08:26:02;;;;;;;;;;;;;;;20.13;42.82;98250.50;4997705;28;20435;-81
2022/12/15 08:28:27;;;;;;;;;;;;;;;20.25;42.89;98266.69;4999574;28;20381;-83
2022/12/15 08:30:53;;;;;;;;;;;;;;;20.77;41.52;98276.09;5000578;28;19984;-89
2022/12/15 08:33:18;;;;;;;;;;;;;;;21.16;40.41;98276.53;4999328;28;20343;-80
2022/12/15 08:35:43;;;;;;;;;;;;;;;21.44;39.49;98267.66;5013395;28;19917;-73
2022/12/15 08:38:08;;;;;;;;;;;;;;;21.66;38.55;98257.75;4995579;28;19918;-72
2022/12/15 08:40:34;;;;;;;;;;;;;;;21.74;37.89;98252.25;4995105;28;19917;-73
2022/12/15 08:42:59;;;;;;;;;;;;;;;21.11;40.47;98255.91;4978862;28;19921;-73
2022/12/15 08:45:24;;;;;;;;;;;;;;;20.87;41.11;98248.41;4978787;28;20415;-74
2022/12/15 08:47:50;;;;;;;;;;;;;;;20.63;41.66;98258.44;4995643;28;19918;-72
2022/12/15 08:50:16;;;;;;;;;;;;;;;20.36;42.26;98249.47;4995335;28;20004;-73
2022/12/15 08:52:41;;;;;;;;;;;;;;;20.15;42.94;98247.66;4995222;28;19987;-72
2022/12/15 08:55:08;;;;;;;;;;;;;;;19.83;43.67;98253.28;4994836;28;19932;-74
2022/12/15 08:57:33;;;;;;;;;;;;;;;20.10;43.10;98250.88;4995019;28;19961;-72
2022/12/15 08:59:58;;;;;;;;;;;;;;;20.59;42.14;98255.34;4978721;28;20438;-78
2022/12/15 09:02:24;;;;;;;;;;;;;;;21.28;39.29;98264.31;4995447;28;19924;-78
2022/12/15 19:08:35;;;;;;;;;;;;;;;11.31;59.49;98775.88;5431825;22;19990;-88
2022/12/15 19:11:05;;;;;;;;;;;;;;;11.28;59.28;98776.13;4979487;28;19974;-83
2022/12/15 19:13:31;;;;;;;;;;;;;;;11.29;59.10;98772.53;4994875;28;20028;-79
2022/12/15 19:15:59;;;;;;;;;;;;;;;11.28;59.34;98782.16;4998159;28;20419;-86
2022/12/15 19:27:17;;;;;;;;;;;;;;;11.25;59.02;98781.59;5067711;28;19928;-83
2022/12/15 19:29:43;;;;;;;;;;;;;;;11.23;59.06;98784.31;5070200;28;19917;-88
2022/12/15 19:32:10;;;;;;;;;;;;;;;11.22;59.08;98780.03;5068978;28;20307;-88
2022/12/15 19:34:35;;;;;;;;;;;;;;;11.21;59.04;98789.66;5042329;28;20300;-80
2022/12/15 19:37:02;;;;;;;;;;;;;;;11.21;59.29;98794.91;5030294;28;19988;-85
2022/12/15 19:39:27;;;;;;;;;;;;;;;11.20;59.34;98800.25;5046964;28;20418;-84
2022/12/15 19:41:52;;;;;;;;;;;;;;;11.20;58.92;98805.47;5046707;28;19960;-81
2022/12/15 19:44:19;;;;;;;;;;;;;;;11.17;59.09;98797.84;5061113;28;19924;-81
2022/12/15 19:46:44;;;;;;;;;;;;;;;11.16;59.26;98798.81;5063693;28;19917;-83
2022/12/15 19:49:09;;;;;;;;;;;;;;;11.14;59.21;98804.16;5048852;28;19928;-83
2022/12/15 19:51:35;;;;;;;;;;;;;;;11.12;58.87;98806.06;5054230;28;20072;-80
2022/12/15 19:54:00;;;;;;;;;;;;;;;11.11;59.16;98800.94;5065717;28;19927;-78
2022/12/15 19:56:25;;;;;;;;;;;;;;;11.12;58.89;98810.47;5065669;28;19912;-83
2022/12/15 19:58:51;;;;;;;;;;;;;;;11.11;59.11;98811.41;5183687;22;19927;-90
2022/12/15 20:01:19;;;;;;;;;;;;;;;11.08;58.95;98816.84;5034262;28;20372;-85
2022/12/15 20:03:46;;;;;;;;;;;;;;;11.08;59.06;98820.28;5020932;28;19928;-84
2022/12/15 20:06:15;;;;;;;;;;;;;;;11.06;59.20;98832.66;5030826;28;19932;-86
2022/12/15 20:08:41;;;;;;;;;;;;;;;11.06;58.90;98845.72;5062303;28;19916;-83
2022/12/15 20:11:27;;;;;;;;;;;;;;;11.04;58.90;98837.16;5040225;28;19928;-90
2022/12/15 20:13:53;;;;;;;;;;;;;;;11.00;58.93;98825.28;5071645;28;19940;-84
2022/12/15 20:16:18;;;;;;;;;;;;;;;10.99;58.97;98827.06;5051197;28;20378;-84
2022/12/15 20:18:47;;;;;;;;;;;;;;;10.99;59.04;98826.22;5050435;28;19917;-83
2022/12/15 20:21:13;;;;;;;;;;;;;;;10.97;59.19;98820.28;5052408;28;19916;-88
2022/12/15 20:23:55;;;;;;;;;;;;;;;10.93;59.12;98827.53;5041010;28;19956;-90
2022/12/15 20:26:21;;;;;;;;;;;;;;;10.94;59.18;98825.75;5054127;28;19974;-87
2022/12/15 20:28:47;;;;;;;;;;;;;;;10.93;59.02;98827.53;5035489;28;19970;-88
2022/12/15 20:31:14;;;;;;;;;;;;;;;10.93;59.01;98829.31;5048553;28;19925;-87
2022/12/15 20:33:40;;;;;;;;;;;;;;;10.90;58.92;98829.56;5041496;28;19924;-87
2022/12/15 20:36:09;;;;;;;;;;;;;;;10.88;59.14;98828.81;5041997;28;19952;-87
2022/12/15 20:38:34;;;;;;;;;;;;;;;10.86;58.98;98832.41;5060197;28;19948;-87
2022/12/15 20:41:00;;;;;;;;;;;;;;;10.86;59.09;98831.56;5033799;28;20307;-86
2022/12/15 20:43:26;;;;;;;;;;;;;;;10.84;58.96;98831.66;5031503;28;19917;-87
2022/12/15 20:46:06;;;;;;;;;;;;;;;10.83;59.16;98834.38;5049315;28;19923;-87
2022/12/15 20:48:31;;;;;;;;;;;;;;;10.82;59.08;98830.13;5035045;28;20291;-86
2022/12/15 20:50:57;;;;;;;;;;;;;;;10.79;59.08;98825.16;5050994;28;19939;-85
2022/12/15 20:53:23;;;;;;;;;;;;;;;10.76;58.85;98828.81;5052793;28;19917;-87
2022/12/15 20:55:49;;;;;;;;;;;;;;;10.75;59.14;98826.31;5037021;28;19979;-86
2022/12/15 20:58:16;;;;;;;;;;;;;;;10.74;59.06;98829.88;5059294;28;19925;-86
2022/12/15 21:00:42;;;;;;;;;;;;;;;10.72;58.95;98836.97;5038800;28;19921;-86
2022/12/15 21:03:17;;;;;;;;;;;;;;;10.69;58.82;98835.47;5042434;28;19970;-90
2022/12/15 21:05:42;;;;;;;;;;;;;;;10.68;58.83;98834.59;5024309;28;19971;-87
2022/12/15 21:08:12;;;;;;;;;;;;;;;10.65;58.89;98836.63;5021645;28;19917;-87
2022/12/15 21:10:39;;;;;;;;;;;;;;;10.64;58.98;98837.56;5038859;28;19917;-89
2022/12/15 21:13:05;;;;;;;;;;;;;;;10.60;58.97;98842.19;5039268;28;20305;-87
2022/12/15 21:15:30;;;;;;;;;;;;;;;10.59;58.77;98832.69;5023210;28;19917;-89
2022/12/15 21:17:55;;;;;;;;;;;;;;;10.58;58.81;98841.47;5022787;28;20367;-89
2022/12/15 21:20:21;;;;;;;;;;;;;;;10.56;59.06;98838.13;5025834;28;20045;-84
2022/12/15 21:22:47;;;;;;;;;;;;;;;10.55;58.98;98844.31;5054074;28;19974;-91
2022/12/15 21:25:30;;;;;;;;;;;;;;;10.53;58.72;98834.91;5061996;28;19917;-84
2022/12/15 21:27:55;;;;;;;;;;;;;;;10.49;58.73;98835.16;5020192;28;19920;-83
2022/12/15 21:30:21;;;;;;;;;;;;;;;10.50;59.01;98838.63;5053688;28;19935;-85
2022/12/15 21:32:50;;;;;;;;;;;;;;;10.49;58.54;98844.75;5037479;28;19917;-83
2022/12/15 21:35:16;;;;;;;;;;;;;;;10.47;58.77;98841.44;5036530;28;19923;-83
2022/12/15 21:37:42;;;;;;;;;;;;;;;10.45;58.72;98846.78;5020306;28;19921;-83
2022/12/15 21:40:09;;;;;;;;;;;;;;;10.42;58.81;98840.94;5036460;28;19950;-83
2022/12/15 21:42:35;;;;;;;;;;;;;;;10.39;58.79;98847.22;5036770;28;20406;-85
2022/12/15 21:45:00;;;;;;;;;;;;;;;10.39;58.81;98846.38;5020729;28;19917;-85
2022/12/15 21:49:13;;;;;;;;;;;;;;;10.38;58.85;98840.34;5037175;28;19948;-84
2022/12/15 21:50:12;;;;;;;;;;;;;;;10.36;58.87;98850.06;5039631;28;19983;-83
2022/12/15 21:52:39;;;;;;;;;;;;;;;10.36;58.88;98857.88;5020397;28;19917;-84
2022/12/15 21:55:12;;;;;;;;;;;;;;;10.37;58.84;98853.50;5020386;28;19921;-83
2022/12/15 21:57:38;;;;;;;;;;;;;;;10.36;58.99;98855.28;5054358;28;19917;-84
2022/12/15 22:00:08;;;;;;;;;;;;;;;10.35;58.98;98843.16;5053827;28;20015;-82
2022/12/15 22:02:33;;;;;;;;;;;;;;;10.36;59.00;98851.81;5053983;28;19940;-81
2022/12/15 22:04:59;;;;;;;;;;;;;;;10.34;58.89;98854.53;5019365;28;20379;-82
2022/12/15 22:07:25;;;;;;;;;;;;;;;10.32;59.04;98849.44;5035667;28;19920;-82
2022/12/15 22:09:51;;;;;;;;;;;;;;;10.34;59.10;98853.72;5053324;28;19948;-88
2022/12/15 22:12:18;;;;;;;;;;;;;;;10.31;59.21;98849.53;5022910;28;19925;-86
2022/12/15 22:14:44;;;;;;;;;;;;;;;10.31;59.18;98852.97;5053852;28;19921;-86
2022/12/15 22:17:16;;;;;;;;;;;;;;;10.31;59.17;98852.97;5036954;28;19921;-85
2022/12/15 22:19:42;;;;;;;;;;;;;;;10.30;59.11;98850.47;5037251;28;19925;-87
2022/12/15 22:22:08;;;;;;;;;;;;;;;10.30;59.23;98846.09;5054487;28;19917;-86
2022/12/15 22:24:33;;;;;;;;;;;;;;;10.29;59.13;98840.97;5037214;28;19917;-86
2022/12/15 22:26:59;;;;;;;;;;;;;;;10.28;59.32;98845.38;5021702;28;19917;-80
2022/12/15 22:29:24;;;;;;;;;;;;;;;10.27;59.35;98841.09;5053885;28;20299;-82
2022/12/15 22:31:50;;;;;;;;;;;;;;;10.29;59.25;98841.81;5035562;28;20023;-81
2022/12/15 22:34:16;;;;;;;;;;;;;;;10.29;59.17;98830.53;5019367;28;19916;-89
2022/12/15 22:36:41;;;;;;;;;;;;;;;10.30;59.37;98840.88;5056795;28;19940;-91
2022/12/15 22:39:09;;;;;;;;;;;;;;;10.31;59.32;98836.50;5040821;28;20302;-89
2022/12/15 22:41:35;;;;;;;;;;;;;;;10.31;59.45;98831.28;5054595;28;19992;-85
2022/12/15 22:44:00;;;;;;;;;;;;;;;10.30;59.49;98838.25;5053426;28;20379;-85
2022/12/15 22:46:26;;;;;;;;;;;;;;;10.30;59.46;98833.03;5035428;28;19917;-86
2022/12/15 22:48:51;;;;;;;;;;;;;;;10.29;59.47;98838.38;5035124;28;19970;-85
2022/12/15 22:51:16;;;;;;;;;;;;;;;10.29;59.43;98831.41;5036820;28;19916;-86
2022/12/15 22:53:42;;;;;;;;;;;;;;;10.29;59.57;98831.41;5035711;28;19917;-85
2022/12/15 22:56:13;;;;;;;;;;;;;;;10.29;59.66;98838.38;5037319;28;19916;-88
2022/12/15 22:58:40;;;;;;;;;;;;;;;10.30;59.72;98832.22;5055176;28;20456;-89
2022/12/15 23:01:05;;;;;;;;;;;;;;;10.27;59.46;98835.88;5035214;28;19920;-86
2022/12/15 23:03:31;;;;;;;;;;;;;;;10.27;59.60;98825.44;5034794;28;19971;-86
2022/12/15 23:05:56;;;;;;;;;;;;;;;10.27;59.51;98832.44;5035048;28;19943;-85
2022/12/15 23:08:21;;;;;;;;;;;;;;;10.25;59.64;98835.16;5034902;28;19924;-86
2022/12/15 23:13:30;;;;;;;;;;;;;;;10.24;59.55;98823.06;5037691;28;19970;-86
2022/12/15 23:18:39;;;;;;;;;;;;;;;10.22;59.57;98834.56;5037854;28;20019;-85
2022/12/15 23:21:06;;;;;;;;;;;;;;;10.23;59.65;98842.28;5052722;28;20015;-85
2022/12/15 23:23:32;;;;;;;;;;;;;;;10.22;59.59;98853.66;5035463;28;20406;-93
2022/12/15 23:25:57;;;;;;;;;;;;;;;10.21;59.87;98851.16;5052861;28;19952;-90
2022/12/15 23:28:22;;;;;;;;;;;;;;;10.23;59.73;98852.72;5034706;28;19971;-94
2022/12/15 23:30:48;;;;;;;;;;;;;;;10.23;59.58;98847.50;5036024;28;19916;-91
2022/12/15 23:33:14;;;;;;;;;;;;;;;10.24;59.58;98850.94;5020436;28;19927;-94
2022/12/15 23:35:39;;;;;;;;;;;;;;;10.26;59.72;98841.19;5035673;28;20383;-90
2022/12/15 23:38:04;;;;;;;;;;;;;;;10.27;59.79;98838.47;5052366;28;19966;-89
2022/12/15 23:40:30;;;;;;;;;;;;;;;10.27;59.78;98828.03;5034585;28;19917;-91
2022/12/15 23:42:55;;;;;;;;;;;;;;;10.28;59.75;98836.72;5052846;28;19917;-92
2022/12/15 23:45:20;;;;;;;;;;;;;;;10.28;59.96;98826.28;5059549;28;20013;-92
2022/12/15 23:47:46;;;;;;;;;;;;;;;10.29;59.90;98827.94;5037308;28;19938;-87
2022/12/15 23:50:11;;;;;;;;;;;;;;;10.29;59.84;98820.97;5053065;28;19929;-87
2022/12/15 23:52:36;;;;;;;;;;;;;;;10.30;59.99;98820.00;5034658;28;19916;-86
2022/12/15 23:55:02;;;;;;;;;;;;;;;10.31;59.89;98823.44;5052285;28;19916;-86
2022/12/15 23:57:27;;;;;;;;;;;;;;;10.30;59.83;98822.59;5033757;28;19924;-86
2022/12/15 23:59:53;;;;;;;;;;;;;;;10.32;59.92;98825.94;5036760;28;19932;-80
